sensor_id;sensor_type;location;lat;lon;timestamp;temperature;humidity
76203;DHT22;64985;46.364;17.008;2023-06-22T00:01:13;20.00;99.90
76203;DHT22;64985;46.364;17.008;2023-06-22T00:04:16;19.90;99.90
76203;DHT22;64985;46.364;17.008;2023-06-22T00:07:18;19.90;99.90
76203;DHT22;64985;46.364;17.008;2023-06-22T00:10:20;19.90;99.90
76203;DHT22;64985;46.364;17.008;2023-06-22T00:13:22;19.90;99.90
76203;DHT22;64985;46.364;17.008;2023-06-22T00:16:25;19.90;99.90
76203;DHT22;64985;46.364;17.008;2023-06-22T00:19:27;19.80;99.90
76203;DHT22;64985;46.364;17.008;2023-06-22T00:22:29;19.80;99.90
76203;DHT22;64985;46.364;17.008;2023-06-22T00:25:31;19.80;99.90
76203;DHT22;64985;46.364;17.008;2023-06-22T00:28:34;19.70;99.90
76203;DHT22;64985;46.364;17.008;2023-06-22T00:31:36;19.70;99.90
76203;DHT22;64985;46.364;17.008;2023-06-22T00:34:38;19.60;99.90
76203;DHT22;64985;46.364;17.008;2023-06-22T00:37:40;19.60;99.90
76203;DHT22;64985;46.364;17.008;2023-06-22T00:40:45;19.40;99.90
76203;DHT22;64985;46.364;17.008;2023-06-22T00:43:47;19.30;99.90
76203;DHT22;64985;46.364;17.008;2023-06-22T00:46:49;19.30;99.90
76203;DHT22;64985;46.364;17.008;2023-06-22T00:49:51;19.20;99.90
76203;DHT22;64985;46.364;17.008;2023-06-22T00:52:56;19.20;99.90
76203;DHT22;64985;46.364;17.008;2023-06-22T00:56:00;19.20;99.90
76203;DHT22;64985;46.364;17.008;2023-06-22T00:59:02;19.10;99.90
76203;DHT22;64985;46.364;17.008;2023-06-22T01:02:05;19.00;99.90
76203;DHT22;64985;46.364;17.008;2023-06-22T01:05:07;19.00;99.90
76203;DHT22;64985;46.364;17.008;2023-06-22T01:08:33;19.00;99.90
76203;DHT22;64985;46.364;17.008;2023-06-22T01:11:42;18.90;99.90
76203;DHT22;64985;46.364;17.008;2023-06-22T01:14:56;18.90;99.90
76203;DHT22;64985;46.364;17.008;2023-06-22T01:18:03;18.90;99.90
76203;DHT22;64985;46.364;17.008;2023-06-22T01:21:06;18.90;99.90
76203;DHT22;64985;46.364;17.008;2023-06-22T01:24:22;18.80;99.90
76203;DHT22;64985;46.364;17.008;2023-06-22T01:31:06;18.70;99.90
76203;DHT22;64985;46.364;17.008;2023-06-22T01:34:11;18.70;99.90
76203;DHT22;64985;46.364;17.008;2023-06-22T01:37:15;18.60;99.90
76203;DHT22;64985;46.364;17.008;2023-06-22T01:40:18;18.60;99.90
76203;DHT22;64985;46.364;17.008;2023-06-22T01:43:21;18.60;99.90
76203;DHT22;64985;46.364;17.008;2023-06-22T01:46:25;18.50;99.90
76203;DHT22;64985;46.364;17.008;2023-06-22T01:49:27;18.50;99.90
76203;DHT22;64985;46.364;17.008;2023-06-22T01:52:30;18.50;99.90
76203;DHT22;64985;46.364;17.008;2023-06-22T01:55:32;18.50;99.90
76203;DHT22;64985;46.364;17.008;2023-06-22T01:58:39;18.50;99.90
76203;DHT22;64985;46.364;17.008;2023-06-22T02:01:58;18.50;99.90
76203;DHT22;64985;46.364;17.008;2023-06-22T02:05:06;18.40;99.90
76203;DHT22;64985;46.364;17.008;2023-06-22T02:08:14;18.20;99.90
76203;DHT22;64985;46.364;17.008;2023-06-22T02:11:20;18.20;99.90
76203;DHT22;64985;46.364;17.008;2023-06-22T02:14:24;18.20;99.90
76203;DHT22;64985;46.364;17.008;2023-06-22T02:17:27;18.20;99.90
76203;DHT22;64985;46.364;17.008;2023-06-22T02:20:29;18.20;99.90
76203;DHT22;64985;46.364;17.008;2023-06-22T02:23:31;18.10;99.90
76203;DHT22;64985;46.364;17.008;2023-06-22T02:26:37;18.10;99.90
76203;DHT22;64985;46.364;17.008;2023-06-22T02:29:40;18.00;99.90
76203;DHT22;64985;46.364;17.008;2023-06-22T02:32:42;18.10;99.90
76203;DHT22;64985;46.364;17.008;2023-06-22T02:35:45;18.00;99.90
76203;DHT22;64985;46.364;17.008;2023-06-22T02:38:50;18.00;99.90
76203;DHT22;64985;46.364;17.008;2023-06-22T02:41:54;18.00;99.90
76203;DHT22;64985;46.364;17.008;2023-06-22T02:44:56;18.00;99.90
76203;DHT22;64985;46.364;17.008;2023-06-22T02:47:58;18.00;99.90
76203;DHT22;64985;46.364;17.008;2023-06-22T02:51:00;18.00;99.90
76203;DHT22;64985;46.364;17.008;2023-06-22T02:54:03;18.00;99.90
76203;DHT22;64985;46.364;17.008;2023-06-22T02:57:05;18.10;99.90
76203;DHT22;64985;46.364;17.008;2023-06-22T03:00:08;18.10;99.90
76203;DHT22;64985;46.364;17.008;2023-06-22T03:03:19;18.10;99.90
76203;DHT22;64985;46.364;17.008;2023-06-22T03:06:21;18.10;99.90
76203;DHT22;64985;46.364;17.008;2023-06-22T03:09:30;18.10;99.90
76203;DHT22;64985;46.364;17.008;2023-06-22T03:12:32;18.00;99.90
76203;DHT22;64985;46.364;17.008;2023-06-22T03:15:34;18.00;99.90
76203;DHT22;64985;46.364;17.008;2023-06-22T03:18:37;18.00;99.90
76203;DHT22;64985;46.364;17.008;2023-06-22T03:21:40;18.00;99.90
76203;DHT22;64985;46.364;17.008;2023-06-22T03:24:42;18.10;99.90
76203;DHT22;64985;46.364;17.008;2023-06-22T03:27:44;18.10;99.90
76203;DHT22;64985;46.364;17.008;2023-06-22T03:30:47;18.10;99.90
76203;DHT22;64985;46.364;17.008;2023-06-22T03:33:50;18.10;99.90
76203;DHT22;64985;46.364;17.008;2023-06-22T03:36:52;18.10;99.90
76203;DHT22;64985;46.364;17.008;2023-06-22T03:39:54;18.00;99.90
76203;DHT22;64985;46.364;17.008;2023-06-22T03:42:56;18.10;99.90
76203;DHT22;64985;46.364;17.008;2023-06-22T03:45:59;18.10;99.90
76203;DHT22;64985;46.364;17.008;2023-06-22T03:49:01;18.10;99.90
76203;DHT22;64985;46.364;17.008;2023-06-22T03:52:06;18.00;99.90
76203;DHT22;64985;46.364;17.008;2023-06-22T03:55:09;18.10;99.90
76203;DHT22;64985;46.364;17.008;2023-06-22T03:58:11;18.10;99.90
76203;DHT22;64985;46.364;17.008;2023-06-22T04:01:14;18.20;99.90
76203;DHT22;64985;46.364;17.008;2023-06-22T04:04:20;18.30;99.90
76203;DHT22;64985;46.364;17.008;2023-06-22T04:07:22;18.40;99.90
76203;DHT22;64985;46.364;17.008;2023-06-22T04:10:24;18.60;99.90
76203;DHT22;64985;46.364;17.008;2023-06-22T04:13:26;18.80;99.90
76203;DHT22;64985;46.364;17.008;2023-06-22T04:16:28;18.90;99.90
76203;DHT22;64985;46.364;17.008;2023-06-22T04:19:31;19.10;99.90
76203;DHT22;64985;46.364;17.008;2023-06-22T04:22:33;19.20;99.90
76203;DHT22;64985;46.364;17.008;2023-06-22T04:25:35;19.30;99.90
76203;DHT22;64985;46.364;17.008;2023-06-22T04:28:37;19.50;99.90
76203;DHT22;64985;46.364;17.008;2023-06-22T04:31:39;19.80;99.90
76203;DHT22;64985;46.364;17.008;2023-06-22T04:34:43;20.10;99.90
76203;DHT22;64985;46.364;17.008;2023-06-22T04:37:45;20.40;99.90
76203;DHT22;64985;46.364;17.008;2023-06-22T04:40:50;20.60;99.90
76203;DHT22;64985;46.364;17.008;2023-06-22T04:43:53;20.90;99.90
76203;DHT22;64985;46.364;17.008;2023-06-22T04:47:01;21.10;99.90
76203;DHT22;64985;46.364;17.008;2023-06-22T04:50:05;21.30;99.90
76203;DHT22;64985;46.364;17.008;2023-06-22T04:53:08;21.60;99.90
76203;DHT22;64985;46.364;17.008;2023-06-22T04:56:11;21.80;99.90
76203;DHT22;64985;46.364;17.008;2023-06-22T04:59:14;22.00;99.90
76203;DHT22;64985;46.364;17.008;2023-06-22T05:02:17;22.20;99.90
76203;DHT22;64985;46.364;17.008;2023-06-22T05:05:19;22.30;99.90
76203;DHT22;64985;46.364;17.008;2023-06-22T05:08:21;22.40;99.90
76203;DHT22;64985;46.364;17.008;2023-06-22T05:11:27;22.50;99.90
76203;DHT22;64985;46.364;17.008;2023-06-22T05:14:29;22.70;99.90
76203;DHT22;64985;46.364;17.008;2023-06-22T05:17:32;22.80;99.90
76203;DHT22;64985;46.364;17.008;2023-06-22T05:20:34;23.00;99.90
76203;DHT22;64985;46.364;17.008;2023-06-22T05:23:37;23.10;99.90
76203;DHT22;64985;46.364;17.008;2023-06-22T05:26:40;23.30;99.90
76203;DHT22;64985;46.364;17.008;2023-06-22T05:29:42;23.30;99.90
76203;DHT22;64985;46.364;17.008;2023-06-22T05:32:44;23.40;99.90
76203;DHT22;64985;46.364;17.008;2023-06-22T05:35:47;23.40;99.90
76203;DHT22;64985;46.364;17.008;2023-06-22T05:38:49;23.30;99.90
76203;DHT22;64985;46.364;17.008;2023-06-22T05:41:51;23.50;99.90
76203;DHT22;64985;46.364;17.008;2023-06-22T05:44:54;23.50;99.90
76203;DHT22;64985;46.364;17.008;2023-06-22T05:47:56;23.60;99.90
76203;DHT22;64985;46.364;17.008;2023-06-22T05:50:58;23.70;99.90
76203;DHT22;64985;46.364;17.008;2023-06-22T05:54:00;23.80;99.90
76203;DHT22;64985;46.364;17.008;2023-06-22T05:57:03;24.00;99.90
76203;DHT22;64985;46.364;17.008;2023-06-22T06:00:06;24.10;99.90
76203;DHT22;64985;46.364;17.008;2023-06-22T06:03:12;24.40;99.90
76203;DHT22;64985;46.364;17.008;2023-06-22T06:06:17;24.70;99.90
76203;DHT22;64985;46.364;17.008;2023-06-22T06:09:19;25.10;99.90
76203;DHT22;64985;46.364;17.008;2023-06-22T06:12:21;25.40;99.90
76203;DHT22;64985;46.364;17.008;2023-06-22T06:15:23;25.20;99.90
76203;DHT22;64985;46.364;17.008;2023-06-22T06:18:25;25.60;99.90
76203;DHT22;64985;46.364;17.008;2023-06-22T06:21:27;26.20;98.90
76203;DHT22;64985;46.364;17.008;2023-06-22T06:24:32;26.50;98.80
76203;DHT22;64985;46.364;17.008;2023-06-22T06:27:34;26.90;95.40
76203;DHT22;64985;46.364;17.008;2023-06-22T06:30:36;26.90;93.90
76203;DHT22;64985;46.364;17.008;2023-06-22T06:33:39;27.00;94.00
76203;DHT22;64985;46.364;17.008;2023-06-22T06:36:41;27.20;94.30
76203;DHT22;64985;46.364;17.008;2023-06-22T06:39:43;27.30;95.40
76203;DHT22;64985;46.364;17.008;2023-06-22T06:42:47;27.60;91.90
76203;DHT22;64985;46.364;17.008;2023-06-22T06:45:50;27.80;92.30
76203;DHT22;64985;46.364;17.008;2023-06-22T06:48:53;27.90;92.30
76203;DHT22;64985;46.364;17.008;2023-06-22T06:51:55;28.40;90.50
76203;DHT22;64985;46.364;17.008;2023-06-22T06:54:58;28.60;91.20
76203;DHT22;64985;46.364;17.008;2023-06-22T06:58:01;28.70;90.20
76203;DHT22;64985;46.364;17.008;2023-06-22T07:01:03;29.00;90.10
76203;DHT22;64985;46.364;17.008;2023-06-22T07:04:05;29.20;83.30
76203;DHT22;64985;46.364;17.008;2023-06-22T07:07:08;29.20;83.20
76203;DHT22;64985;46.364;17.008;2023-06-22T07:10:10;29.40;80.60
76203;DHT22;64985;46.364;17.008;2023-06-22T07:13:12;29.80;85.40
76203;DHT22;64985;46.364;17.008;2023-06-22T07:16:14;30.00;77.90
76203;DHT22;64985;46.364;17.008;2023-06-22T07:19:16;30.10;80.20
76203;DHT22;64985;46.364;17.008;2023-06-22T07:22:25;30.60;80.90
76203;DHT22;64985;46.364;17.008;2023-06-22T07:25:28;30.80;74.30
76203;DHT22;64985;46.364;17.008;2023-06-22T07:28:30;30.70;74.90
76203;DHT22;64985;46.364;17.008;2023-06-22T07:31:38;30.90;77.10
76203;DHT22;64985;46.364;17.008;2023-06-22T07:34:42;30.90;74.40
76203;DHT22;64985;46.364;17.008;2023-06-22T07:37:45;31.00;75.80
76203;DHT22;64985;46.364;17.008;2023-06-22T07:40:47;30.90;75.90
76203;DHT22;64985;46.364;17.008;2023-06-22T07:43:49;31.10;74.20
76203;DHT22;64985;46.364;17.008;2023-06-22T07:46:52;31.20;73.20
76203;DHT22;64985;46.364;17.008;2023-06-22T07:49:58;31.10;73.80
76203;DHT22;64985;46.364;17.008;2023-06-22T07:53:03;31.60;70.70
76203;DHT22;64985;46.364;17.008;2023-06-22T07:56:05;31.70;75.00
76203;DHT22;64985;46.364;17.008;2023-06-22T07:59:09;31.30;71.30
76203;DHT22;64985;46.364;17.008;2023-06-22T08:02:11;31.20;71.60
76203;DHT22;64985;46.364;17.008;2023-06-22T08:05:15;31.20;72.50
76203;DHT22;64985;46.364;17.008;2023-06-22T08:08:20;31.90;70.40
76203;DHT22;64985;46.364;17.008;2023-06-22T08:11:22;32.30;70.30
76203;DHT22;64985;46.364;17.008;2023-06-22T08:14:26;32.60;67.80
76203;DHT22;64985;46.364;17.008;2023-06-22T08:17:28;32.90;69.90
76203;DHT22;64985;46.364;17.008;2023-06-22T08:20:30;33.00;67.60
76203;DHT22;64985;46.364;17.008;2023-06-22T08:23:33;32.90;68.00
76203;DHT22;64985;46.364;17.008;2023-06-22T08:26:35;33.20;65.20
76203;DHT22;64985;46.364;17.008;2023-06-22T08:29:39;32.70;66.10
76203;DHT22;64985;46.364;17.008;2023-06-22T08:32:41;32.40;67.00
76203;DHT22;64985;46.364;17.008;2023-06-22T08:35:43;32.10;67.40
76203;DHT22;64985;46.364;17.008;2023-06-22T08:38:45;32.20;67.60
76203;DHT22;64985;46.364;17.008;2023-06-22T08:41:53;32.20;69.50
76203;DHT22;64985;46.364;17.008;2023-06-22T08:44:55;32.00;69.50
76203;DHT22;64985;46.364;17.008;2023-06-22T08:47:57;32.20;70.50
76203;DHT22;64985;46.364;17.008;2023-06-22T08:50:59;32.10;70.10
76203;DHT22;64985;46.364;17.008;2023-06-22T08:54:02;32.20;67.20
76203;DHT22;64985;46.364;17.008;2023-06-22T08:57:04;32.60;65.40
76203;DHT22;64985;46.364;17.008;2023-06-22T09:00:08;32.90;63.90
76203;DHT22;64985;46.364;17.008;2023-06-22T09:03:21;32.90;63.20
76203;DHT22;64985;46.364;17.008;2023-06-22T09:06:23;33.20;65.40
76203;DHT22;64985;46.364;17.008;2023-06-22T09:09:26;34.00;62.60
76203;DHT22;64985;46.364;17.008;2023-06-22T09:12:28;34.20;61.40
76203;DHT22;64985;46.364;17.008;2023-06-22T09:15:32;33.90;62.50
76203;DHT22;64985;46.364;17.008;2023-06-22T09:18:36;34.30;63.40
76203;DHT22;64985;46.364;17.008;2023-06-22T09:21:38;33.80;64.60
76203;DHT22;64985;46.364;17.008;2023-06-22T09:24:40;34.00;63.10
76203;DHT22;64985;46.364;17.008;2023-06-22T09:27:42;34.70;67.20
76203;DHT22;64985;46.364;17.008;2023-06-22T09:30:45;35.20;62.70
76203;DHT22;64985;46.364;17.008;2023-06-22T09:33:47;34.80;62.70
76203;DHT22;64985;46.364;17.008;2023-06-22T09:36:49;34.40;62.00
76203;DHT22;64985;46.364;17.008;2023-06-22T09:39:51;34.70;63.00
76203;DHT22;64985;46.364;17.008;2023-06-22T09:42:54;35.30;58.50
76203;DHT22;64985;46.364;17.008;2023-06-22T09:45:56;35.10;60.00
76203;DHT22;64985;46.364;17.008;2023-06-22T09:48:58;35.10;60.60
76203;DHT22;64985;46.364;17.008;2023-06-22T09:52:00;35.00;61.60
76203;DHT22;64985;46.364;17.008;2023-06-22T09:55:02;35.20;61.20
76203;DHT22;64985;46.364;17.008;2023-06-22T09:58:05;35.90;57.30
76203;DHT22;64985;46.364;17.008;2023-06-22T10:01:08;35.80;58.90
76203;DHT22;64985;46.364;17.008;2023-06-22T10:04:10;34.10;59.20
76203;DHT22;64985;46.364;17.008;2023-06-22T10:07:12;33.90;60.70
76203;DHT22;64985;46.364;17.008;2023-06-22T10:10:14;34.40;60.60
76203;DHT22;64985;46.364;17.008;2023-06-22T10:13:17;34.10;57.70
76203;DHT22;64985;46.364;17.008;2023-06-22T10:16:20;34.20;60.90
76203;DHT22;64985;46.364;17.008;2023-06-22T10:19:22;34.30;61.00
76203;DHT22;64985;46.364;17.008;2023-06-22T10:22:25;34.40;59.30
76203;DHT22;64985;46.364;17.008;2023-06-22T10:25:27;35.50;55.20
76203;DHT22;64985;46.364;17.008;2023-06-22T10:28:30;35.80;53.40
76203;DHT22;64985;46.364;17.008;2023-06-22T10:31:34;35.10;56.70
76203;DHT22;64985;46.364;17.008;2023-06-22T10:34:36;34.30;59.00
76203;DHT22;64985;46.364;17.008;2023-06-22T10:37:38;33.90;59.00
76203;DHT22;64985;46.364;17.008;2023-06-22T10:40:40;34.40;59.00
76203;DHT22;64985;46.364;17.008;2023-06-22T10:43:42;34.40;58.20
76203;DHT22;64985;46.364;17.008;2023-06-22T10:46:44;34.70;59.00
76203;DHT22;64985;46.364;17.008;2023-06-22T10:49:47;34.70;58.20
76203;DHT22;64985;46.364;17.008;2023-06-22T10:52:49;34.60;59.70
76203;DHT22;64985;46.364;17.008;2023-06-22T10:55:53;34.70;56.70
76203;DHT22;64985;46.364;17.008;2023-06-22T10:58:58;34.80;57.90
76203;DHT22;64985;46.364;17.008;2023-06-22T11:02:00;34.50;59.50
76203;DHT22;64985;46.364;17.008;2023-06-22T11:05:04;34.40;59.30
76203;DHT22;64985;46.364;17.008;2023-06-22T11:08:06;35.20;60.00
76203;DHT22;64985;46.364;17.008;2023-06-22T11:11:08;35.90;55.90
76203;DHT22;64985;46.364;17.008;2023-06-22T11:14:10;36.40;55.80
76203;DHT22;64985;46.364;17.008;2023-06-22T11:17:13;36.70;55.50
76203;DHT22;64985;46.364;17.008;2023-06-22T11:20:15;36.20;53.70
76203;DHT22;64985;46.364;17.008;2023-06-22T11:23:17;35.60;54.00
76203;DHT22;64985;46.364;17.008;2023-06-22T11:26:20;35.00;54.50
76203;DHT22;64985;46.364;17.008;2023-06-22T11:29:23;34.90;56.50
76203;DHT22;64985;46.364;17.008;2023-06-22T11:32:39;35.30;53.70
76203;DHT22;64985;46.364;17.008;2023-06-22T11:35:41;35.30;55.20
76203;DHT22;64985;46.364;17.008;2023-06-22T11:38:43;34.40;58.00
76203;DHT22;64985;46.364;17.008;2023-06-22T11:41:46;34.60;56.20
76203;DHT22;64985;46.364;17.008;2023-06-22T11:44:48;34.80;56.00
76203;DHT22;64985;46.364;17.008;2023-06-22T11:47:50;35.50;56.70
76203;DHT22;64985;46.364;17.008;2023-06-22T11:50:52;35.50;54.00
76203;DHT22;64985;46.364;17.008;2023-06-22T11:53:54;35.30;57.20
76203;DHT22;64985;46.364;17.008;2023-06-22T11:56:56;35.70;57.90
76203;DHT22;64985;46.364;17.008;2023-06-22T11:59:58;35.50;56.10
76203;DHT22;64985;46.364;17.008;2023-06-22T12:03:00;35.80;55.00
76203;DHT22;64985;46.364;17.008;2023-06-22T12:06:03;36.30;52.80
76203;DHT22;64985;46.364;17.008;2023-06-22T12:09:05;36.40;54.30
76203;DHT22;64985;46.364;17.008;2023-06-22T12:12:07;35.80;54.00
76203;DHT22;64985;46.364;17.008;2023-06-22T12:15:10;35.60;54.30
76203;DHT22;64985;46.364;17.008;2023-06-22T12:18:12;34.90;53.90
76203;DHT22;64985;46.364;17.008;2023-06-22T12:21:17;35.10;57.00
76203;DHT22;64985;46.364;17.008;2023-06-22T12:24:19;35.50;54.60
76203;DHT22;64985;46.364;17.008;2023-06-22T12:27:21;35.70;53.30
76203;DHT22;64985;46.364;17.008;2023-06-22T12:30:23;35.10;55.60
76203;DHT22;64985;46.364;17.008;2023-06-22T12:33:25;35.30;58.00
76203;DHT22;64985;46.364;17.008;2023-06-22T12:36:27;35.90;52.40
76203;DHT22;64985;46.364;17.008;2023-06-22T12:39:29;36.10;55.60
76203;DHT22;64985;46.364;17.008;2023-06-22T12:42:31;36.20;53.10
76203;DHT22;64985;46.364;17.008;2023-06-22T12:45:34;36.30;55.50
76203;DHT22;64985;46.364;17.008;2023-06-22T12:48:36;35.80;54.30
76203;DHT22;64985;46.364;17.008;2023-06-22T12:51:44;35.90;52.60
76203;DHT22;64985;46.364;17.008;2023-06-22T12:54:46;35.50;55.20
76203;DHT22;64985;46.364;17.008;2023-06-22T12:57:56;35.70;55.70
76203;DHT22;64985;46.364;17.008;2023-06-22T13:00:58;36.20;50.70
76203;DHT22;64985;46.364;17.008;2023-06-22T13:04:01;36.60;56.00
76203;DHT22;64985;46.364;17.008;2023-06-22T13:07:03;36.20;52.30
76203;DHT22;64985;46.364;17.008;2023-06-22T13:10:21;35.80;53.40
76203;DHT22;64985;46.364;17.008;2023-06-22T13:13:25;35.50;52.80
76203;DHT22;64985;46.364;17.008;2023-06-22T13:16:29;35.30;56.00
76203;DHT22;64985;46.364;17.008;2023-06-22T13:19:31;35.20;56.20
76203;DHT22;64985;46.364;17.008;2023-06-22T13:22:35;35.20;55.20
76203;DHT22;64985;46.364;17.008;2023-06-22T13:25:45;35.20;52.50
76203;DHT22;64985;46.364;17.008;2023-06-22T13:28:47;36.00;55.90
76203;DHT22;64985;46.364;17.008;2023-06-22T13:31:49;36.30;50.50
76203;DHT22;64985;46.364;17.008;2023-06-22T13:34:52;35.90;52.00
76203;DHT22;64985;46.364;17.008;2023-06-22T13:37:54;35.50;52.90
76203;DHT22;64985;46.364;17.008;2023-06-22T13:40:56;35.60;53.40
76203;DHT22;64985;46.364;17.008;2023-06-22T13:44:00;35.20;52.40
76203;DHT22;64985;46.364;17.008;2023-06-22T13:47:02;34.80;53.50
76203;DHT22;64985;46.364;17.008;2023-06-22T13:50:06;34.60;55.40
76203;DHT22;64985;46.364;17.008;2023-06-22T13:53:09;34.80;51.70
76203;DHT22;64985;46.364;17.008;2023-06-22T13:56:11;35.30;52.80
76203;DHT22;64985;46.364;17.008;2023-06-22T13:59:14;35.70;55.50
76203;DHT22;64985;46.364;17.008;2023-06-22T14:02:16;35.30;56.30
76203;DHT22;64985;46.364;17.008;2023-06-22T14:05:18;34.90;55.20
76203;DHT22;64985;46.364;17.008;2023-06-22T14:08:20;35.10;57.80
76203;DHT22;64985;46.364;17.008;2023-06-22T14:11:42;35.40;54.10
76203;DHT22;64985;46.364;17.008;2023-06-22T14:14:44;35.00;55.80
76203;DHT22;64985;46.364;17.008;2023-06-22T14:17:47;35.00;55.70
76203;DHT22;64985;46.364;17.008;2023-06-22T14:20:49;34.80;58.30
76203;DHT22;64985;46.364;17.008;2023-06-22T14:23:51;34.70;55.60
76203;DHT22;64985;46.364;17.008;2023-06-22T14:26:54;34.40;54.80
76203;DHT22;64985;46.364;17.008;2023-06-22T14:29:57;34.20;56.50
76203;DHT22;64985;46.364;17.008;2023-06-22T14:32:59;34.20;55.40
76203;DHT22;64985;46.364;17.008;2023-06-22T14:36:01;34.00;57.00
76203;DHT22;64985;46.364;17.008;2023-06-22T14:39:03;34.30;54.80
76203;DHT22;64985;46.364;17.008;2023-06-22T14:42:05;34.50;55.90
76203;DHT22;64985;46.364;17.008;2023-06-22T14:45:08;34.50;55.70
76203;DHT22;64985;46.364;17.008;2023-06-22T14:48:10;34.80;57.20
76203;DHT22;64985;46.364;17.008;2023-06-22T14:51:13;35.20;55.20
76203;DHT22;64985;46.364;17.008;2023-06-22T14:54:18;35.20;54.90
76203;DHT22;64985;46.364;17.008;2023-06-22T14:57:20;34.60;56.50
76203;DHT22;64985;46.364;17.008;2023-06-22T15:00:24;34.50;58.00
76203;DHT22;64985;46.364;17.008;2023-06-22T15:03:26;34.30;58.70
76203;DHT22;64985;46.364;17.008;2023-06-22T15:06:30;34.10;57.40
76203;DHT22;64985;46.364;17.008;2023-06-22T15:09:33;33.90;60.50
76203;DHT22;64985;46.364;17.008;2023-06-22T15:12:36;34.30;60.20
76203;DHT22;64985;46.364;17.008;2023-06-22T15:15:38;34.50;56.10
76203;DHT22;64985;46.364;17.008;2023-06-22T15:18:41;34.50;57.20
76203;DHT22;64985;46.364;17.008;2023-06-22T15:21:43;34.30;57.90
76203;DHT22;64985;46.364;17.008;2023-06-22T15:24:46;34.20;61.20
76203;DHT22;64985;46.364;17.008;2023-06-22T15:27:49;34.40;58.90
76203;DHT22;64985;46.364;17.008;2023-06-22T15:30:52;34.20;60.40
76203;DHT22;64985;46.364;17.008;2023-06-22T15:33:54;34.00;61.30
76203;DHT22;64985;46.364;17.008;2023-06-22T15:36:56;33.70;62.80
76203;DHT22;64985;46.364;17.008;2023-06-22T15:39:59;33.80;61.20
76203;DHT22;64985;46.364;17.008;2023-06-22T15:43:01;33.90;60.70
76203;DHT22;64985;46.364;17.008;2023-06-22T15:46:03;34.00;61.80
76203;DHT22;64985;46.364;17.008;2023-06-22T15:49:05;34.00;61.00
76203;DHT22;64985;46.364;17.008;2023-06-22T15:52:07;33.90;60.50
76203;DHT22;64985;46.364;17.008;2023-06-22T15:55:09;33.70;62.00
76203;DHT22;64985;46.364;17.008;2023-06-22T15:58:12;33.50;62.70
76203;DHT22;64985;46.364;17.008;2023-06-22T16:01:15;33.40;64.90
76203;DHT22;64985;46.364;17.008;2023-06-22T16:04:17;33.50;63.70
76203;DHT22;64985;46.364;17.008;2023-06-22T16:07:19;33.40;62.20
76203;DHT22;64985;46.364;17.008;2023-06-22T16:10:21;33.20;62.20
76203;DHT22;64985;46.364;17.008;2023-06-22T16:13:24;32.90;64.00
76203;DHT22;64985;46.364;17.008;2023-06-22T16:16:26;32.90;64.50
76203;DHT22;64985;46.364;17.008;2023-06-22T16:19:28;32.90;67.00
76203;DHT22;64985;46.364;17.008;2023-06-22T16:22:31;32.80;65.90
76203;DHT22;64985;46.364;17.008;2023-06-22T16:25:33;32.80;67.00
76203;DHT22;64985;46.364;17.008;2023-06-22T16:28:35;32.80;68.00
76203;DHT22;64985;46.364;17.008;2023-06-22T16:31:38;32.80;65.20
76203;DHT22;64985;46.364;17.008;2023-06-22T16:34:40;32.70;67.70
76203;DHT22;64985;46.364;17.008;2023-06-22T16:37:42;32.60;67.10
76203;DHT22;64985;46.364;17.008;2023-06-22T16:40:44;32.60;66.80
76203;DHT22;64985;46.364;17.008;2023-06-22T16:43:46;32.60;67.60
76203;DHT22;64985;46.364;17.008;2023-06-22T16:46:49;32.50;67.10
76203;DHT22;64985;46.364;17.008;2023-06-22T16:49:51;32.60;69.00
76203;DHT22;64985;46.364;17.008;2023-06-22T16:52:53;32.50;67.90
76203;DHT22;64985;46.364;17.008;2023-06-22T16:55:57;32.50;69.20
76203;DHT22;64985;46.364;17.008;2023-06-22T16:58:59;32.40;68.80
76203;DHT22;64985;46.364;17.008;2023-06-22T17:02:04;32.30;68.10
76203;DHT22;64985;46.364;17.008;2023-06-22T17:05:07;32.30;71.10
76203;DHT22;64985;46.364;17.008;2023-06-22T17:08:12;32.10;71.00
76203;DHT22;64985;46.364;17.008;2023-06-22T17:11:16;32.20;73.60
76203;DHT22;64985;46.364;17.008;2023-06-22T17:14:18;32.20;76.50
76203;DHT22;64985;46.364;17.008;2023-06-22T17:17:20;32.10;81.80
76203;DHT22;64985;46.364;17.008;2023-06-22T17:20:27;31.90;82.10
76203;DHT22;64985;46.364;17.008;2023-06-22T17:23:30;31.70;84.10
76203;DHT22;64985;46.364;17.008;2023-06-22T17:26:32;31.60;86.00
76203;DHT22;64985;46.364;17.008;2023-06-22T17:29:35;31.50;89.80
76203;DHT22;64985;46.364;17.008;2023-06-22T17:32:37;31.30;89.80
76203;DHT22;64985;46.364;17.008;2023-06-22T17:35:47;31.00;92.10
76203;DHT22;64985;46.364;17.008;2023-06-22T17:38:50;30.70;95.50
76203;DHT22;64985;46.364;17.008;2023-06-22T17:41:52;30.50;95.70
76203;DHT22;64985;46.364;17.008;2023-06-22T17:45:00;30.30;95.50
76203;DHT22;64985;46.364;17.008;2023-06-22T17:48:08;30.20;96.00
76203;DHT22;64985;46.364;17.008;2023-06-22T17:51:13;29.90;97.90
76203;DHT22;64985;46.364;17.008;2023-06-22T17:54:15;29.80;98.00
76203;DHT22;64985;46.364;17.008;2023-06-22T17:57:17;29.60;99.70
76203;DHT22;64985;46.364;17.008;2023-06-22T18:00:20;29.40;99.90
76203;DHT22;64985;46.364;17.008;2023-06-22T18:03:25;29.10;99.90
76203;DHT22;64985;46.364;17.008;2023-06-22T18:06:27;28.90;99.90
76203;DHT22;64985;46.364;17.008;2023-06-22T18:09:32;28.80;99.90
76203;DHT22;64985;46.364;17.008;2023-06-22T18:12:36;28.60;99.90
76203;DHT22;64985;46.364;17.008;2023-06-22T18:15:38;28.30;99.90
76203;DHT22;64985;46.364;17.008;2023-06-22T18:18:41;28.10;99.90
76203;DHT22;64985;46.364;17.008;2023-06-22T18:21:47;27.80;99.90
76203;DHT22;64985;46.364;17.008;2023-06-22T18:24:50;27.60;99.90
76203;DHT22;64985;46.364;17.008;2023-06-22T18:27:55;27.40;99.90
76203;DHT22;64985;46.364;17.008;2023-06-22T18:30:57;27.10;99.90
76203;DHT22;64985;46.364;17.008;2023-06-22T18:34:00;27.00;99.90
76203;DHT22;64985;46.364;17.008;2023-06-22T18:37:08;26.70;99.90
76203;DHT22;64985;46.364;17.008;2023-06-22T18:40:13;26.50;99.90
76203;DHT22;64985;46.364;17.008;2023-06-22T18:43:22;26.40;99.90
76203;DHT22;64985;46.364;17.008;2023-06-22T18:46:32;26.20;99.90
76203;DHT22;64985;46.364;17.008;2023-06-22T18:53:02;25.90;99.90
76203;DHT22;64985;46.364;17.008;2023-06-22T18:56:12;25.80;99.90
76203;DHT22;64985;46.364;17.008;2023-06-22T18:59:15;25.70;99.90
76203;DHT22;64985;46.364;17.008;2023-06-22T19:05:41;25.40;99.90
76203;DHT22;64985;46.364;17.008;2023-06-22T19:09:12;25.30;99.90